createdAt,value
2022-10-08T00:01:38.276Z,19.13
2022-10-08T00:05:39.856Z,17.02
2022-10-08T00:09:41.434Z,14.98
2022-10-08T00:13:45.243Z,15.00
2022-10-08T00:17:46.834Z,16.83
2022-10-08T00:21:51.255Z,15.20
2022-10-08T00:25:52.668Z,15.05
2022-10-08T00:29:54.231Z,16.17
2022-10-08T00:33:57.759Z,18.30
2022-10-08T00:37:59.188Z,15.85
2022-10-08T00:42:02.278Z,14.65
2022-10-08T00:46:05.243Z,18.80
2022-10-08T00:50:18.402Z,17.20
2022-10-08T00:54:22.044Z,15.98
2022-10-08T00:58:25.551Z,16.48
2022-10-08T01:02:27.018Z,15.80
2022-10-08T01:06:30.675Z,15.93
2022-10-08T01:11:23.103Z,15.80
2022-10-08T01:15:36.719Z,13.10
2022-10-08T01:19:47.298Z,15.30
2022-10-08T01:24:52.475Z,12.93
2022-10-08T01:29:02.339Z,13.10
2022-10-08T01:33:12.547Z,16.90
2022-10-08T01:37:24.736Z,18.13
2022-10-08T01:41:27.186Z,16.48
2022-10-08T01:45:32.503Z,16.70
2022-10-08T01:49:42.189Z,17.98
2022-10-08T01:53:46.173Z,15.45
2022-10-08T01:57:47.999Z,16.73
2022-10-08T02:02:29.508Z,18.63
2022-10-08T02:06:34.681Z,21.08
2022-10-08T02:10:36.931Z,13.82
2022-10-08T02:14:41.101Z,15.43
2022-10-08T02:18:49.363Z,15.20
2022-10-08T02:23:04.703Z,18.75
2022-10-08T02:27:08.394Z,16.90
2022-10-08T02:31:15.922Z,14.77
2022-10-08T02:35:25.493Z,11.70
2022-10-08T02:39:29.248Z,13.73
2022-10-08T02:43:34.642Z,15.07
2022-10-08T02:47:38.602Z,16.00
2022-10-08T02:51:41.817Z,15.15
2022-10-08T02:55:54.892Z,11.48
2022-10-08T02:59:56.446Z,11.90
2022-10-08T03:04:05.269Z,11.50
2022-10-08T03:08:07.983Z,20.02
2022-10-08T03:12:09.709Z,15.30
2022-10-08T03:16:13.589Z,16.45
2022-10-08T03:20:15.009Z,19.77
2022-10-08T03:24:17.019Z,12.98
2022-10-08T03:28:18.441Z,10.05
2022-10-08T03:32:19.859Z,12.00
2022-10-08T03:36:23.254Z,13.48
2022-10-08T03:40:24.810Z,10.50
2022-10-08T03:44:26.236Z,12.73
2022-10-08T03:48:28.630Z,14.63
2022-10-08T03:52:31.006Z,13.13
2022-10-08T03:56:32.658Z,15.40
2022-10-08T04:00:34.545Z,10.20
2022-10-08T04:04:36.104Z,15.18
2022-10-08T04:08:38.002Z,19.45
2022-10-08T04:12:39.439Z,13.35
2022-10-08T04:16:40.831Z,15.85
2022-10-08T04:20:43.431Z,13.63
2022-10-08T04:24:45.002Z,16.73
2022-10-08T04:28:48.046Z,14.48
2022-10-08T04:32:50.054Z,15.98
2022-10-08T04:36:51.557Z,15.05
2022-10-08T04:41:17.731Z,12.05
2022-10-08T04:45:19.545Z,15.02
2022-10-08T04:49:20.987Z,14.63
2022-10-08T04:53:22.729Z,19.52
2022-10-08T04:57:24.123Z,14.63
2022-10-08T05:01:27.239Z,10.57
2022-10-08T05:05:29.029Z,18.33
2022-10-08T05:09:30.510Z,15.98
2022-10-08T05:13:32.652Z,13.40
2022-10-08T05:17:34.534Z,19.02
2022-10-08T05:21:36.544Z,14.23
2022-10-08T05:25:38.056Z,13.27
2022-10-08T05:29:39.555Z,11.38
2022-10-08T05:33:40.999Z,16.45
2022-10-08T05:37:42.513Z,11.07
2022-10-08T05:41:44.302Z,13.05
2022-10-08T05:45:52.245Z,20.52
2022-10-08T05:49:53.822Z,17.05
2022-10-08T05:53:56.878Z,11.63
2022-10-08T05:57:58.306Z,21.27
2022-10-08T06:01:59.735Z,13.65
2022-10-08T06:06:06.638Z,13.52
2022-10-08T06:10:08.781Z,17.93
2022-10-08T06:14:12.161Z,12.48
2022-10-08T06:18:13.621Z,11.52
2022-10-08T06:22:15.094Z,16.52
2022-10-08T06:26:18.181Z,14.77
2022-10-08T06:30:19.648Z,12.50
2022-10-08T06:34:21.688Z,8.52
2022-10-08T06:38:23.349Z,8.55
2022-10-08T06:42:24.923Z,7.95
2022-10-08T06:46:26.680Z,10.32
2022-10-08T06:50:28.114Z,12.50
2022-10-08T06:54:29.660Z,11.00
2022-10-08T06:58:31.671Z,11.75
2022-10-08T07:02:33.389Z,13.05
2022-10-08T07:06:35.647Z,13.48
2022-10-08T07:10:37.046Z,13.35
2022-10-08T07:14:38.665Z,9.90
2022-10-08T07:18:41.069Z,14.07
2022-10-08T07:22:42.653Z,11.82
2022-10-08T07:26:44.681Z,6.65
2022-10-08T07:30:46.636Z,13.60
2022-10-08T07:34:48.119Z,7.65
2022-10-08T07:38:57.728Z,7.70
2022-10-08T07:42:59.235Z,8.13
2022-10-08T07:47:01.107Z,11.20
2022-10-08T07:51:19.497Z,12.90
2022-10-08T07:55:21.911Z,12.38
2022-10-08T07:59:23.470Z,7.38
2022-10-08T08:03:25.395Z,10.88
2022-10-08T08:07:27.069Z,7.50
2022-10-08T08:11:30.097Z,4.75
2022-10-08T08:15:31.569Z,10.40
2022-10-08T08:19:33.143Z,7.25
2022-10-08T08:23:37.762Z,4.97
2022-10-08T08:27:39.221Z,11.73
2022-10-08T08:31:43.631Z,7.13
2022-10-08T08:35:55.719Z,10.32
2022-10-08T08:39:57.368Z,6.32
2022-10-08T08:44:00.186Z,8.38
2022-10-08T08:48:18.632Z,7.90
2022-10-08T08:52:26.656Z,6.60
2022-10-08T08:56:29.027Z,7.70
2022-10-08T09:00:36.598Z,10.52
2022-10-08T09:04:44.906Z,5.45
2022-10-08T09:09:15.567Z,8.10
2022-10-08T09:13:21.638Z,7.10
2022-10-08T09:17:31.298Z,7.70
2022-10-08T09:21:33.946Z,9.80
2022-10-08T09:25:37.377Z,7.88
2022-10-08T09:29:38.926Z,8.75
2022-10-08T09:33:40.879Z,10.80
2022-10-08T09:37:45.970Z,7.47
2022-10-08T09:42:07.364Z,8.02
2022-10-08T09:46:28.568Z,8.48
2022-10-08T09:50:30.309Z,8.73
2022-10-08T09:54:36.099Z,8.07
2022-10-08T09:58:53.289Z,12.07
2022-10-08T10:02:55.900Z,7.40
2022-10-08T10:06:57.564Z,9.50
2022-10-08T10:10:59.536Z,8.30
2022-10-08T10:15:11.355Z,7.85
2022-10-08T10:19:19.079Z,10.10
2022-10-08T10:23:35.340Z,7.07
2022-10-08T10:27:45.133Z,6.10
2022-10-08T10:31:53.864Z,9.02
2022-10-08T10:36:01.347Z,6.95
2022-10-08T10:40:22.367Z,11.20
2022-10-08T10:44:26.991Z,10.02
2022-10-08T10:48:29.199Z,9.48
2022-10-08T10:53:07.513Z,11.40
2022-10-08T10:57:28.702Z,5.68
2022-10-08T11:01:34.139Z,8.30
2022-10-08T11:05:36.764Z,8.57
2022-10-08T11:09:47.492Z,7.85
2022-10-08T11:14:16.389Z,8.15
2022-10-08T11:18:19.869Z,4.95
2022-10-08T11:22:40.651Z,10.38
2022-10-08T11:26:50.539Z,7.78
2022-10-08T11:31:13.812Z,8.38
2022-10-08T11:35:31.495Z,7.50
2022-10-08T11:43:40.743Z,8.27
2022-10-08T11:47:42.148Z,6.93
2022-10-08T11:51:45.383Z,7.25
2022-10-08T11:55:55.336Z,6.95
2022-10-08T12:00:08.638Z,6.90
2022-10-08T12:04:32.279Z,7.38
2022-10-08T12:08:59.442Z,10.80
2022-10-08T12:13:02.736Z,11.88
2022-10-08T12:17:04.411Z,13.02
2022-10-08T12:21:17.914Z,7.50
2022-10-08T12:25:32.059Z,8.50
2022-10-08T12:29:56.797Z,5.28
2022-10-08T12:34:10.422Z,12.50
2022-10-08T12:38:24.310Z,4.82
2022-10-08T12:42:28.413Z,11.70
2022-10-08T12:46:48.114Z,8.65
2022-10-08T12:51:09.747Z,7.35
2022-10-08T12:55:16.914Z,4.78
2022-10-08T12:59:20.320Z,8.45
2022-10-08T13:03:21.918Z,5.68
2022-10-08T13:07:28.700Z,4.75
2022-10-08T13:11:30.814Z,7.60
2022-10-08T13:15:35.049Z,5.07
2022-10-08T13:19:39.098Z,5.43
2022-10-08T13:23:40.843Z,8.73
2022-10-08T13:27:42.256Z,10.73
2022-10-08T13:31:44.149Z,5.93
2022-10-08T13:35:52.031Z,3.00
2022-10-08T13:39:56.215Z,7.55
2022-10-08T13:43:58.297Z,4.07
2022-10-08T13:47:59.757Z,4.70
2022-10-08T13:52:01.975Z,8.30
2022-10-08T13:56:04.140Z,4.05
2022-10-08T14:00:06.252Z,5.43
2022-10-08T14:04:07.695Z,4.90
2022-10-08T14:08:23.971Z,2.53
2022-10-08T14:12:27.428Z,9.70
2022-10-08T14:16:28.937Z,8.40
2022-10-08T14:20:30.472Z,6.80
2022-10-08T14:24:32.098Z,5.50
2022-10-08T14:28:33.521Z,5.65
2022-10-08T14:32:34.956Z,5.35
2022-10-08T14:36:38.430Z,3.38
2022-10-08T14:40:39.951Z,9.52
2022-10-08T14:44:42.157Z,5.65
2022-10-08T14:48:43.591Z,4.22
2022-10-08T14:52:45.062Z,4.00
2022-10-08T14:56:48.272Z,4.90
2022-10-08T15:00:57.005Z,3.13
2022-10-08T15:04:58.489Z,9.95
2022-10-08T15:09:00.423Z,4.75
2022-10-08T15:13:02.051Z,3.00
2022-10-08T15:17:06.442Z,1.63
2022-10-08T15:21:08.417Z,2.85
2022-10-08T15:25:09.939Z,2.13
2022-10-08T15:29:11.789Z,3.00
2022-10-08T15:33:13.232Z,2.83
2022-10-08T15:37:14.743Z,2.15
2022-10-08T15:41:17.647Z,6.75
2022-10-08T15:45:19.511Z,6.80
2022-10-08T15:49:21.455Z,9.43
2022-10-08T15:53:23.324Z,3.90
2022-10-08T15:57:24.887Z,4.38
2022-10-08T16:01:27.225Z,4.40
2022-10-08T16:05:31.207Z,3.72
2022-10-08T16:09:32.806Z,5.13
2022-10-08T16:13:34.233Z,3.88
2022-10-08T16:17:35.720Z,5.22
2022-10-08T16:21:37.471Z,5.10
2022-10-08T16:25:41.277Z,6.97
2022-10-08T16:29:48.305Z,4.88
2022-10-08T16:33:57.973Z,3.58
2022-10-08T16:38:03.373Z,5.63
2022-10-08T16:42:04.931Z,6.25
2022-10-08T16:46:13.621Z,5.65
2022-10-08T16:50:15.185Z,3.75
2022-10-08T16:54:17.807Z,5.97
2022-10-08T16:58:19.370Z,5.90
2022-10-08T17:02:25.051Z,3.45
2022-10-08T17:06:29.048Z,3.97
2022-10-08T17:10:30.464Z,4.90
2022-10-08T17:14:33.363Z,5.57
2022-10-08T17:18:35.520Z,3.35
2022-10-08T17:22:36.976Z,6.38
2022-10-08T17:26:39.372Z,2.90
2022-10-08T17:30:40.804Z,6.38
2022-10-08T17:34:42.435Z,1.70
2022-10-08T17:38:48.729Z,2.60
2022-10-08T17:42:50.553Z,7.35
2022-10-08T17:46:52.298Z,5.35
2022-10-08T17:50:54.658Z,7.95
2022-10-08T17:54:56.115Z,8.00
2022-10-08T17:58:59.857Z,6.95
2022-10-08T18:03:03.043Z,5.28
2022-10-08T18:07:04.679Z,6.18
2022-10-08T18:11:08.100Z,7.32
2022-10-08T18:15:09.738Z,7.00
2022-10-08T18:19:12.042Z,8.88
2022-10-08T18:23:13.577Z,5.53
2022-10-08T18:27:15.162Z,6.90
2022-10-08T18:31:20.444Z,8.13
2022-10-08T18:35:22.102Z,7.28
2022-10-08T18:39:28.232Z,6.97
2022-10-08T18:43:30.121Z,5.03
2022-10-08T18:47:31.587Z,9.02
2022-10-08T18:51:34.185Z,9.25
2022-10-08T18:55:35.774Z,14.60
2022-10-08T18:59:37.476Z,10.07
2022-10-08T19:03:39.162Z,11.32
2022-10-08T19:07:40.673Z,12.15
2022-10-08T19:11:45.461Z,8.98
2022-10-08T19:15:47.299Z,9.45
2022-10-08T19:19:48.828Z,9.10
2022-10-08T19:23:50.792Z,9.00
2022-10-08T19:27:53.015Z,7.13
2022-10-08T19:31:55.330Z,5.72
2022-10-08T19:36:00.912Z,7.50
2022-10-08T19:40:02.747Z,7.63
2022-10-08T19:44:04.774Z,6.25
2022-10-08T19:48:06.227Z,5.90
2022-10-08T19:52:08.281Z,14.70
2022-10-08T19:56:10.415Z,6.45
2022-10-08T20:00:13.429Z,8.15
2022-10-08T20:04:16.973Z,6.82
2022-10-08T20:08:18.643Z,11.73
2022-10-08T20:12:20.247Z,7.93
2022-10-08T20:16:32.891Z,7.25
2022-10-08T20:20:34.720Z,8.63
2022-10-08T20:24:36.274Z,5.43
2022-10-08T20:28:37.831Z,8.05
2022-10-08T20:32:39.588Z,6.28
2022-10-08T20:36:41.602Z,6.75
2022-10-08T20:40:42.959Z,7.88
2022-10-08T20:44:44.404Z,11.30
2022-10-08T20:48:46.742Z,5.28
2022-10-08T20:52:49.352Z,7.68
2022-10-08T20:56:51.290Z,6.20
2022-10-08T21:00:52.989Z,5.30
2022-10-08T21:04:54.504Z,8.35
2022-10-08T21:08:57.794Z,10.80
2022-10-08T21:12:59.293Z,6.72
2022-10-08T21:17:00.790Z,7.13
2022-10-08T21:21:04.447Z,14.10
2022-10-08T21:25:06.512Z,7.47
2022-10-08T21:29:10.870Z,5.85
2022-10-08T21:33:12.311Z,4.88
2022-10-08T21:37:14.292Z,8.95
2022-10-08T21:41:17.511Z,7.60
2022-10-08T21:45:19.236Z,6.55
2022-10-08T21:49:20.984Z,6.50
2022-10-08T21:53:22.526Z,11.80
2022-10-08T21:57:24.585Z,8.68
2022-10-08T22:01:46.515Z,9.98
2022-10-08T22:05:55.179Z,11.00
2022-10-08T22:09:56.770Z,10.68
2022-10-08T22:13:58.361Z,9.30
2022-10-08T22:17:59.941Z,10.10
2022-10-08T22:22:02.128Z,9.48
2022-10-08T22:26:15.130Z,12.90
2022-10-08T22:30:16.614Z,8.30
2022-10-08T22:34:18.221Z,8.82
2022-10-08T22:38:19.764Z,5.70
2022-10-08T22:42:21.648Z,8.07
2022-10-08T22:46:25.833Z,7.53
2022-10-08T22:50:27.307Z,5.40
2022-10-08T22:54:28.676Z,10.90
2022-10-08T22:58:30.250Z,7.35
2022-10-08T23:02:31.731Z,7.38
2022-10-08T23:06:34.444Z,9.38
2022-10-08T23:10:37.504Z,6.60
2022-10-08T23:14:39.279Z,7.47
2022-10-08T23:18:43.310Z,5.65
2022-10-08T23:22:44.961Z,7.60
2022-10-08T23:26:46.643Z,6.90
2022-10-08T23:30:48.285Z,9.50
2022-10-08T23:34:49.692Z,7.00
2022-10-08T23:38:52.085Z,9.43
2022-10-08T23:42:53.696Z,7.22
2022-10-08T23:46:55.616Z,8.48
2022-10-08T23:50:57.296Z,5.88
2022-10-08T23:54:59.007Z,8.27
2022-10-08T23:59:00.721Z,6.38
